Time;durP1;ratioP1;P1;durP2;ratioP2;P2;SDS_P1;SDS_P2;PMS_P1;PMS_P2;Temp;Humidity;BMP_temperature;BMP_pressure;BME280_temperature;BME280_humidity;BME280_pressure;Samples;Min_cycle;Max_cycle;Signal;HPM_P1;HPM_P2
2023/09/24 00:11:48;;;;;;;0.36;0.36;;;;;;;17.67;60.14;99650.47;5287252;26;20033;-96
2023/09/24 00:14:14;;;;;;;0.20;0.20;;;;;;;17.68;60.14;99662.72;5325825;26;20056;-96
2023/09/24 00:16:53;;;;;;;0.32;0.30;;;;;;;17.63;60.14;99664.75;5315262;26;20065;-96
2023/09/24 00:20:10;;;;;;;0.20;0.20;;;;;;;17.55;60.13;99648.59;5361428;26;20034;-96
2023/09/24 00:22:59;;;;;;;0.10;0.10;;;;;;;17.60;60.13;99638.62;5316473;27;20067;-96
2023/09/24 00:33:25;;;;;;;0.20;0.10;;;;;;;17.66;60.14;99664.56;5280737;27;20050;-96
2023/09/24 00:36:09;;;;;;;0.30;0.30;;;;;;;17.47;60.13;99656.94;5317630;27;20193;-96
2023/09/24 00:58:53;;;;;;;0.20;0.20;;;;;;;17.77;60.14;99668.25;5224056;27;20043;31
2023/09/24 01:01:41;;;;;;;0.00;0.00;;;;;;;17.65;60.14;99673.41;5242967;26;20065;31
2023/09/24 01:23:51;;;;;;;0.25;0.25;;;;;;;17.21;60.11;99662.97;5268754;26;20796;-96
2023/09/24 01:26:24;;;;;;;0.28;0.28;;;;;;;17.17;60.12;99664.94;5323728;26;20047;-96
2023/09/24 01:52:07;;;;;;;0.08;0.08;;;;;;;17.34;60.12;99672.66;5336765;26;20113;-96
2023/09/24 01:54:33;;;;;;;0.00;0.00;;;;;;;17.35;60.12;99671.72;5340094;26;20320;-96
2023/09/24 01:57:03;;;;;;;0.10;0.10;;;;;;;17.33;60.13;99676.25;5335875;26;20057;-96
2023/09/24 01:59:40;;;;;;;;;;;;;;;17.53;60.13;99674.19;5365892;26;20051;-96
2023/09/24 02:02:09;;;;;;;0.20;0.20;;;;;;;17.53;60.12;99682.91;5400579;26;19951;-96
2023/09/24 02:04:37;;;;;;;1.25;0.37;;;;;;;17.46;60.12;99666.63;5354071;26;20096;-94
2023/09/24 02:07:03;;;;;;;0.00;0.00;;;;;;;17.25;60.11;99662.69;5335361;26;20036;-94
2023/09/24 02:09:29;;;;;;;0.30;0.30;;;;;;;17.24;60.12;99671.50;5334991;26;20078;-96
2023/09/24 02:11:56;;;;;;;0.17;0.17;;;;;;;17.32;60.12;99671.91;5334079;26;20083;-96
2023/09/24 02:14:21;;;;;;;0.28;0.28;;;;;;;17.38;60.12;99678.59;5334981;26;20073;-95
2023/09/24 02:16:47;;;;;;;0.08;0.08;;;;;;;17.29;60.12;99676.53;5334518;26;20106;-96
2023/09/24 02:19:14;;;;;;;0.20;0.20;;;;;;;17.35;60.12;99681.41;5353096;26;20089;-96
2023/09/24 02:21:40;;;;;;;0.15;0.10;;;;;;;17.47;60.13;99676.22;5335407;26;20199;-95
2023/09/24 02:24:08;;;;;;;0.45;0.35;;;;;;;17.41;60.12;99659.97;5337228;26;20060;-96
2023/09/24 02:26:34;;;;;;;1.17;0.88;;;;;;;17.35;60.12;99653.31;5334622;26;20073;-94
2023/09/24 02:28:59;;;;;;;0.25;0.25;;;;;;;17.46;60.12;99644.75;5334809;26;20396;-96
2023/09/24 02:31:26;;;;;;;0.13;0.13;;;;;;;17.29;60.12;99648.44;5334747;26;20067;-96
2023/09/24 02:33:52;;;;;;;0.00;0.00;;;;;;;17.47;60.13;99652.53;5340958;26;20040;-95
2023/09/24 02:36:20;;;;;;;0.55;0.55;;;;;;;17.62;60.13;99649.91;5338509;26;20066;-95
2023/09/24 02:38:49;;;;;;;0.00;0.00;;;;;;;17.70;60.14;99656.41;5357570;26;20042;-96
2023/09/24 02:41:20;;;;;;;0.47;0.47;;;;;;;17.71;60.14;99646.72;5339750;26;20055;-96
2023/09/24 02:43:55;;;;;;;0.13;0.13;;;;;;;17.64;60.13;99661.19;5386944;26;20024;-96
2023/09/24 02:46:26;;;;;;;0.52;0.30;;;;;;;17.53;60.13;99671.53;5352970;26;20023;-96
2023/09/24 02:48:52;;;;;;;1.00;0.37;;;;;;;17.49;60.13;99679.59;5372847;26;20043;-95
2023/09/24 02:54:22;;;;;;;0.10;0.10;;;;;;;17.82;60.14;99686.41;5331528;26;20064;-95
2023/09/24 02:59:44;;;;;;;0.20;0.20;;;;;;;17.70;60.14;99677.47;5301857;26;20051;-96
2023/09/24 03:43:33;;;;;;;1.60;0.43;;;;;;;16.98;60.11;99659.09;5354347;26;20023;-95
2023/09/24 04:14:00;;;;;;;0.32;0.32;;;;;;;17.38;60.12;99660.16;5279159;26;20027;-94
2023/09/24 04:19:39;;;;;;;0.30;0.30;;;;;;;17.32;60.12;99679.81;5364291;26;20162;-96
2023/09/24 04:22:48;;;;;;;0.00;0.00;;;;;;;17.37;60.12;99675.09;5350622;26;20051;-96
2023/09/24 04:25:34;;;;;;;;;;;;;;;;;;;;;
2023/09/24 04:28:13;;;;;;;0.93;0.52;;;;;;;17.55;60.13;99674.94;5353359;26;36749;-96
2023/09/24 04:30:52;;;;;;;;;;;;;;;;;;;;;
2023/09/24 04:37:39;;;;;;;;;;;;;;;;;;;;;
2023/09/24 04:40:24;;;;;;;0.00;0.00;;;;;;;17.41;60.13;99688.91;5100077;27;20143;-96
2023/09/24 04:46:10;;;;;;;0.00;0.00;;;;;;;17.50;60.13;99693.59;5222678;27;20082;-96
2023/09/24 04:59:06;;;;;;;0.10;0.10;;;;;;;17.68;60.14;99689.03;5160125;27;20135;-96
2023/09/24 05:06:18;;;;;;;1.00;0.80;;;;;;;17.63;60.14;99694.56;5157395;27;20046;-96
2023/09/24 05:09:31;;;;;;;0.05;0.05;;;;;;;17.58;60.13;99690.53;5157890;27;20034;-96
2023/09/24 05:22:36;;;;;;;0.20;0.20;;;;;;;17.75;60.14;99693.00;5182551;26;20044;-94
2023/09/24 05:33:20;;;;;;;0.00;0.00;;;;;;;17.78;60.13;99698.06;5324088;26;20036;-96
2023/09/24 05:36:24;;;;;;;0.10;0.10;;;;;;;17.82;60.14;99698.72;5318937;26;20068;-96
2023/09/24 05:39:17;;;;;;;0.20;0.20;;;;;;;17.85;60.14;99707.25;5328765;26;20059;-96
2023/09/24 05:41:50;;;;;;;0.20;0.20;;;;;;;17.77;60.13;99712.19;5354107;26;20029;-96
2023/09/24 05:44:40;;;;;;;0.00;0.00;;;;;;;17.81;60.15;99716.31;5336003;26;20023;-96
2023/09/24 05:47:19;;;;;;;0.83;0.60;;;;;;;17.80;60.15;99714.62;5355813;26;20060;-95
2023/09/24 05:54:06;;;;;;;;;;;;;;;;;;;;;
2023/09/24 06:35:22;;;;;;;0.55;0.28;;;;;;;18.52;60.18;99750.41;5263302;27;20073;-95
2023/09/24 06:38:28;;;;;;;;;;;;;;;;;;;;;
2023/09/24 06:41:14;;;;;;;0.00;0.00;;;;;;;18.72;60.19;99766.75;5305962;27;35475;-96
2023/09/24 06:44:11;;;;;;;0.10;0.10;;;;;;;18.79;60.20;99768.88;5328888;27;20053;-96
2023/09/24 06:47:49;;;;;;;;;;;;;;;;;;;;;
2023/09/24 06:50:37;;;;;;;;;;;;;;;;;;;;;
2023/09/24 06:53:31;;;;;;;1.67;0.57;;;;;;;18.91;60.20;99790.94;5328468;27;36350;-95
2023/09/24 06:56:35;;;;;;;0.00;0.00;;;;;;;19.02;60.21;99794.59;5328386;27;20045;-95
2023/09/24 06:59:21;;;;;;;0.10;0.10;;;;;;;19.05;60.21;99795.34;5331400;27;20116;-96
2023/09/24 07:02:13;;;;;;;;;;;;;;;;;;;;;
2023/09/24 07:04:53;;;;;;;0.35;0.30;;;;;;;19.00;60.20;99801.75;5310377;27;36228;-95
2023/09/24 07:07:53;;;;;;;;;;;;;;;;;;;;;
2023/09/24 07:11:02;;;;;;;0.65;0.52;;;;;;;19.12;60.21;99805.38;5308619;27;35242;-96
2023/09/24 07:13:56;;;;;;;0.00;0.00;;;;;;;19.22;60.22;99813.53;5267911;27;20053;-94
2023/09/24 07:16:52;;;;;;;;;;;;;;;;;;;;;
2023/09/24 07:19:32;;;;;;;;;;;;;;;;;;;;;
2023/09/24 07:22:26;;;;;;;;;;;;;;;;;;;;;
2023/09/24 07:25:06;;;;;;;0.00;0.00;;;;;;;19.20;60.22;99810.16;5304657;27;36394;-94
2023/09/24 07:28:31;;;;;;;;;;;;;;;;;;;;;
2023/09/24 07:31:21;;;;;;;0.00;0.00;;;;;;;19.40;60.23;99806.16;5306093;27;20085;-95
2023/09/24 07:34:24;;;;;;;;;;;;;;;;;;;;;
2023/09/24 07:37:05;;;;;;;0.00;0.00;;;;;;;19.60;60.24;99821.53;5313390;26;36516;-96
2023/09/24 07:40:05;;;;;;;0.20;0.20;;;;;;;19.66;60.24;99818.50;5310569;26;20059;-96
2023/09/24 07:43:08;;;;;;;;;;;;;;;;;;;;;
2023/09/24 07:45:42;;;;;;;0.00;0.00;;;;;;;19.58;60.24;99824.28;5321311;26;34942;-96
2023/09/24 07:48:24;;;;;;;;;;;;;;;;;;;;;
2023/09/24 07:51:04;;;;;;;0.00;0.00;;;;;;;19.59;60.23;99831.25;5312865;26;36900;-95
2023/09/24 07:54:00;;;;;;;;;;;;;;;;;;;;;
2023/09/24 07:56:41;;;;;;;;;;;;;;;;;;;;;
2023/09/24 07:59:14;;;;;;;0.00;0.00;;;;;;;19.68;60.24;99829.81;5312153;26;36017;-95
2023/09/24 08:01:41;;;;;;;0.00;0.00;;;;;;;19.64;60.24;99838.88;5290201;26;20062;-94
2023/09/24 08:04:39;;;;;;;0.00;0.00;;;;;;;19.65;60.24;99830.00;5305675;26;20022;-96
2023/09/24 08:07:13;;;;;;;0.00;0.00;;;;;;;19.43;60.23;99833.22;5333953;26;20036;-94
2023/09/24 08:09:40;;;;;;;0.00;0.00;;;;;;;19.38;60.22;99842.38;5312504;26;20064;-96
2023/09/24 08:12:16;;;;;;;0.00;0.00;;;;;;;19.33;60.23;99843.53;5292570;26;20044;-95
2023/09/24 08:14:58;;;;;;;0.00;0.00;;;;;;;19.39;60.22;99844.91;5292146;26;20060;-96
2023/09/24 08:17:31;;;;;;;0.00;0.00;;;;;;;19.15;60.21;99842.09;5310697;26;20062;-96
2023/09/24 08:20:00;;;;;;;0.00;0.00;;;;;;;19.29;60.22;99843.84;5291767;26;20486;-95
2023/09/24 08:22:30;;;;;;;0.10;0.10;;;;;;;19.10;60.21;99844.19;5291040;26;20048;-96
2023/09/24 08:24:58;;;;;;;;;;;;;;;19.17;60.21;99847.31;5291102;26;20074;-96
2023/09/24 08:27:34;;;;;;;;;;;;;;;;;;;;;
2023/09/24 08:30:00;;;;;;;0.00;0.00;;;;;;;19.15;60.21;99842.09;5310505;26;35714;-96
2023/09/24 08:32:38;;;;;;;;;;;;;;;;;;;;;
2023/09/24 08:35:06;;;;;;;0.00;0.00;;;;;;;18.99;60.20;99852.84;5310109;26;35809;-96
2023/09/24 08:37:34;;;;;;;0.00;0.00;;;;;;;18.95;60.20;99858.41;5290362;26;20216;-96
2023/09/24 08:40:02;;;;;;;0.08;0.08;;;;;;;18.98;60.20;99855.56;5289364;26;20462;-96
2023/09/24 08:42:28;;;;;;;0.00;0.00;;;;;;;19.01;60.21;99850.94;5289526;26;20363;-95
2023/09/24 08:45:09;;;;;;;0.10;0.10;;;;;;;19.05;60.21;99851.59;5289528;26;20172;-96
2023/09/24 08:47:34;;;;;;;0.10;0.10;;;;;;;18.95;60.20;99858.41;5291741;26;20119;-96
2023/09/24 08:50:00;;;;;;;0.00;0.00;;;;;;;19.01;60.21;99852.72;5289726;26;20075;-95
2023/09/24 08:52:39;;;;;;;;;;;;;;;;;;;;;
2023/09/24 08:55:05;;;;;;;0.00;0.00;;;;;;;18.70;60.20;99867.06;5309954;26;36310;-95
2023/09/24 08:57:41;;;;;;;0.00;0.00;;;;;;;18.69;60.19;99870.59;5325867;26;20440;-96
2023/09/24 09:00:09;;;;;;;0.00;0.00;;;;;;;18.73;60.19;99871.28;5290597;26;20063;-95
2023/09/24 09:02:48;;;;;;;0.15;0.15;;;;;;;18.84;60.20;99879.34;5308061;26;20044;-96
2023/09/24 09:05:35;;;;;;;1.80;0.40;;;;;;;19.06;60.20;99873.53;5289845;26;20076;-95
2023/09/24 09:08:09;;;;;;;0.13;0.13;;;;;;;19.22;60.22;99872.44;5290815;26;20060;-96
2023/09/24 09:10:35;;;;;;;0.00;0.00;;;;;;;19.22;60.22;99874.22;5290518;26;20074;-94
2023/09/24 09:13:31;;;;;;;;;;;;;;;;;;;;;
2023/09/24 09:16:11;;;;;;;0.00;0.00;;;;;;;19.17;60.21;99876.34;5327615;26;36441;-95
2023/09/24 09:18:41;;;;;;;0.00;0.00;;;;;;;19.11;60.21;99874.91;5294478;26;20039;-94
2023/09/24 09:21:10;;;;;;;0.20;0.20;;;;;;;19.06;60.20;99884.09;5290390;26;20173;-96
2023/09/24 09:23:50;;;;;;;0.00;0.00;;;;;;;19.12;60.21;99883.69;5289978;26;20062;-94
2023/09/24 09:26:20;;;;;;;0.10;0.10;;;;;;;19.33;60.23;99875.22;5309355;26;20060;-96
2023/09/24 09:28:56;;;;;;;0.00;0.00;;;;;;;19.06;60.21;99892.84;5308054;26;20070;-96
2023/09/24 09:31:23;;;;;;;0.10;0.10;;;;;;;19.10;60.21;99890.84;5291832;26;20068;-95
2023/09/24 09:33:49;;;;;;;0.00;0.00;;;;;;;19.23;60.21;99887.31;5290257;26;20102;-94
2023/09/24 09:36:51;;;;;;;;;;;;;;;;;;;;;
2023/09/24 09:39:26;;;;;;;0.00;0.00;;;;;;;19.35;60.22;99888.31;5324440;26;35238;-94
2023/09/24 09:41:59;;;;;;;0.00;0.00;;;;;;;19.16;60.21;99893.94;5293061;26;20102;-96
2023/09/24 09:44:35;;;;;;;2.35;0.30;;;;;;;19.27;60.22;99899.38;5292201;26;20413;-94
2023/09/24 09:47:00;;;;;;;0.00;0.00;;;;;;;19.19;60.21;99904.31;5307357;26;20420;-94
2023/09/24 09:49:34;;;;;;;0.00;0.00;;;;;;;19.04;60.21;99909.72;5307208;26;20098;-94
2023/09/24 09:52:04;;;;;;;0.00;0.00;;;;;;;18.86;60.20;99903.81;5308130;26;20073;-94
2023/09/24 09:54:34;;;;;;;0.00;0.00;;;;;;;18.76;60.19;99903.56;5290651;26;20067;-94
2023/09/24 09:57:02;;;;;;;0.00;0.00;;;;;;;18.86;60.20;99909.94;5289982;26;20078;-94
2023/09/24 09:59:28;;;;;;;0.00;0.00;;;;;;;19.00;60.20;99909.94;5290866;26;20041;-95
2023/09/24 10:01:56;;;;;;;0.00;0.00;;;;;;;18.91;60.19;99905.22;5291023;26;20435;-94
2023/09/24 10:04:21;;;;;;;0.00;0.00;;;;;;;18.88;60.20;99909.84;5307641;26;20110;-95
2023/09/24 10:06:53;;;;;;;0.20;0.20;;;;;;;18.78;60.20;99922.78;5289309;26;20093;-95
2023/09/24 10:09:29;;;;;;;0.37;0.37;;;;;;;18.80;60.20;99927.97;5289417;26;20136;-95
2023/09/24 10:12:07;;;;;;;0.00;0.00;;;;;;;18.92;60.21;99922.75;5325954;26;20431;-93
2023/09/24 10:14:35;;;;;;;0.00;0.00;;;;;;;18.79;60.20;99919.19;5291739;26;20059;-96
2023/09/24 10:17:16;;;;;;;0.20;0.20;;;;;;;18.86;60.20;99924.94;5307516;26;20114;-95
2023/09/24 10:19:56;;;;;;;0.00;0.00;;;;;;;18.98;60.20;99925.00;5326109;26;20401;-93
2023/09/24 10:22:31;;;;;;;0.00;0.00;;;;;;;18.94;60.21;99925.31;5291792;26;20892;-96
2023/09/24 10:25:33;;;;;;;;;;;;;;;;;;;;;
2023/09/24 10:28:27;;;;;;;0.45;0.45;;;;;;;18.82;60.20;99920.78;5313229;26;37680;-96
2023/09/24 10:31:21;;;;;;;0.08;0.08;;;;;;;18.77;60.19;99930.78;5293386;26;20060;-95
2023/09/24 10:33:58;;;;;;;0.00;0.00;;;;;;;18.76;60.19;99931.75;5291593;26;20053;-96
2023/09/24 10:36:30;;;;;;;0.00;0.00;;;;;;;18.79;60.20;99926.25;5327992;26;20052;-96
2023/09/24 10:39:14;;;;;;;0.00;0.00;;;;;;;18.77;60.19;99936.06;5308843;26;20080;-95
2023/09/24 10:42:14;;;;;;;0.00;0.00;;;;;;;18.67;60.19;99936.62;5292813;26;20059;-94
2023/09/24 10:44:49;;;;;;;0.80;0.43;;;;;;;18.52;60.18;99931.44;5313441;26;20737;-96
2023/09/24 10:47:27;;;;;;;0.13;0.05;;;;;;;18.59;60.18;99932.75;5325959;26;20025;-96
2023/09/24 10:50:03;;;;;;;0.00;0.00;;;;;;;18.58;60.19;99941.59;5314931;26;20068;-95
2023/09/24 10:52:29;;;;;;;0.00;0.00;;;;;;;18.61;60.18;99936.97;5291352;26;20155;-94
2023/09/24 10:54:55;;;;;;;0.00;0.00;;;;;;;18.50;60.18;99942.09;5290176;26;20021;-92
2023/09/24 10:57:24;;;;;;;0.00;0.00;;;;;;;18.67;60.19;99947.16;5289599;26;20067;-96
2023/09/24 10:59:50;;;;;;;0.00;0.00;;;;;;;18.58;60.19;99939.81;5288951;26;20060;-94
2023/09/24 11:02:18;;;;;;;0.00;0.00;;;;;;;18.52;60.18;99937.56;5307710;26;20071;-94
2023/09/24 11:04:47;;;;;;;0.00;0.00;;;;;;;18.48;60.18;99943.13;5289837;26;20059;-93
2023/09/24 11:07:13;;;;;;;0.00;0.00;;;;;;;18.49;60.18;99936.91;5290639;26;20048;-95
2023/09/24 11:09:39;;;;;;;0.37;0.37;;;;;;;18.43;60.18;99938.09;5290493;26;20075;-95
2023/09/24 11:12:08;;;;;;;0.00;0.00;;;;;;;18.48;60.18;99932.56;5307815;26;20113;-96
2023/09/24 11:14:36;;;;;;;0.00;0.00;;;;;;;18.34;60.17;99950.06;5288747;26;20068;-95
2023/09/24 11:17:04;;;;;;;0.00;0.00;;;;;;;18.57;60.19;99942.53;5290465;26;20084;-95
2023/09/24 11:19:43;;;;;;;0.00;0.00;;;;;;;18.60;60.18;99945.00;5289526;26;20666;-96
2023/09/24 11:22:18;;;;;;;0.00;0.00;;;;;;;18.62;60.18;99949.25;5289837;26;20086;-96
2023/09/24 11:24:46;;;;;;;0.00;0.00;;;;;;;18.77;60.19;99949.25;5325975;26;20431;-96
2023/09/24 11:27:14;;;;;;;0.25;0.25;;;;;;;18.71;60.20;99947.84;5291007;26;20034;-95
2023/09/24 11:29:58;;;;;;;0.00;0.00;;;;;;;18.77;60.19;99947.47;5289982;26;20648;-95
2023/09/24 11:32:29;;;;;;;0.00;0.00;;;;;;;19.01;60.21;99945.06;5290522;26;20057;-95
2023/09/24 11:35:25;;;;;;;0.00;0.00;;;;;;;19.07;60.21;99949.09;5325782;26;20068;-96
2023/09/24 11:38:04;;;;;;;;;;;;;;;;;;;;;
2023/09/24 11:40:50;;;;;;;;;;;;;;;;;;;;;
2023/09/24 11:43:16;;;;;;;0.00;0.00;;;;;;;18.80;60.20;99957.81;5310022;26;35914;-96
2023/09/24 11:45:48;;;;;;;0.00;0.00;;;;;;;18.93;60.21;99952.63;5289692;26;20057;-95
2023/09/24 11:48:21;;;;;;;0.00;0.00;;;;;;;19.06;60.21;99958.81;5308885;26;20633;-94
2023/09/24 11:50:50;;;;;;;0.00;0.00;;;;;;;18.95;60.21;99966.56;5290348;26;20067;-95
2023/09/24 11:53:20;;;;;;;0.00;0.00;;;;;;;18.94;60.21;99954.31;5308346;26;20114;-95
2023/09/24 11:55:50;;;;;;;0.00;0.00;;;;;;;18.92;60.20;99958.81;5329075;26;20060;-96
2023/09/24 11:58:17;;;;;;;0.10;0.10;;;;;;;18.78;60.19;99948.31;5291717;26;20048;-96
2023/09/24 12:00:49;;;;;;;0.00;0.00;;;;;;;18.91;60.20;99949.22;5291108;26;20073;-96
2023/09/24 12:03:17;;;;;;;0.00;0.00;;;;;;;19.09;60.22;99948.06;5292624;26;20065;-95
2023/09/24 12:05:47;;;;;;;1.25;0.55;;;;;;;19.12;60.22;99947.84;5289864;26;20055;-96
2023/09/24 12:08:16;;;;;;;0.00;0.00;;;;;;;19.22;60.22;99958.69;5294189;26;20068;-96
2023/09/24 12:10:57;;;;;;;0.00;0.00;;;;;;;19.17;60.21;99963.41;5329783;26;20080;-96
2023/09/24 12:13:23;;;;;;;0.05;0.00;;;;;;;19.36;60.22;99976.25;5294022;26;20086;-95
2023/09/24 12:15:48;;;;;;;0.00;0.00;;;;;;;19.38;60.23;99982.28;5289649;26;20100;-96
2023/09/24 12:18:27;;;;;;;0.00;0.00;;;;;;;19.57;60.24;99988.09;5289818;26;20048;-96
2023/09/24 12:20:56;;;;;;;0.00;0.00;;;;;;;19.48;60.24;99991.31;5295577;26;20114;-96
2023/09/24 12:23:25;;;;;;;0.00;0.00;;;;;;;19.49;60.23;99985.09;5326746;26;20084;-95
2023/09/24 12:25:53;;;;;;;0.00;0.00;;;;;;;19.29;60.22;99996.91;5307621;26;20120;-96
2023/09/24 12:28:19;;;;;;;0.00;0.00;;;;;;;19.43;60.23;99985.50;5289783;26;20063;-96
2023/09/24 12:30:46;;;;;;;0.00;0.00;;;;;;;19.47;60.24;99979.91;5290015;26;20681;-96
2023/09/24 12:33:14;;;;;;;0.00;0.00;;;;;;;19.57;60.24;99978.37;5290820;26;20126;-96
2023/09/24 12:35:42;;;;;;;0.00;0.00;;;;;;;19.56;60.24;99983.75;5289109;26;20052;-96
2023/09/24 12:38:08;;;;;;;0.00;0.00;;;;;;;19.76;60.24;99979.81;5292984;26;20063;-96
2023/09/24 12:40:34;;;;;;;0.00;0.00;;;;;;;19.50;60.24;99974.41;5289227;26;21008;-94
2023/09/24 12:43:00;;;;;;;0.00;0.00;;;;;;;19.57;60.24;99973.09;5289421;26;20097;-95
2023/09/24 12:45:25;;;;;;;0.00;0.00;;;;;;;19.57;60.24;99980.16;5289434;26;20052;-95
2023/09/24 12:47:56;;;;;;;0.00;0.00;;;;;;;19.80;60.25;99974.22;5288996;26;20066;-96
2023/09/24 12:50:22;;;;;;;0.32;0.32;;;;;;;19.71;60.25;99964.28;5290644;26;20422;-95
2023/09/24 12:52:48;;;;;;;0.20;0.20;;;;;;;19.91;60.25;99952.38;5290140;26;20060;-95
2023/09/24 12:55:17;;;;;;;0.00;0.00;;;;;;;19.82;60.25;99947.69;5307971;26;20053;-95
2023/09/24 12:57:46;;;;;;;0.00;0.00;;;;;;;19.58;60.24;99947.53;5288670;26;20060;-95
2023/09/24 13:00:14;;;;;;;0.00;0.00;;;;;;;19.73;60.25;99949.16;5307533;26;20057;-96
2023/09/24 13:02:45;;;;;;;0.00;0.00;;;;;;;19.65;60.25;99954.13;5310981;26;20114;-95
2023/09/24 13:05:15;;;;;;;0.00;0.00;;;;;;;19.48;60.24;99957.00;5314445;26;20047;-96
2023/09/24 13:07:43;;;;;;;0.00;0.00;;;;;;;19.54;60.25;99962.75;5328898;26;20135;-96
2023/09/24 13:10:14;;;;;;;0.00;0.00;;;;;;;19.61;60.23;99960.53;5291808;26;20163;-96
2023/09/24 13:12:40;;;;;;;0.00;0.00;;;;;;;19.52;60.23;99958.47;5291275;26;20065;-96
2023/09/24 13:15:35;;;;;;;0.00;0.00;;;;;;;19.55;60.24;99959.16;5291598;26;20024;-96
2023/09/24 13:18:01;;;;;;;0.00;0.00;;;;;;;19.44;60.23;99963.44;5331583;26;20121;-96
2023/09/24 13:20:27;;;;;;;0.00;0.00;;;;;;;19.48;60.23;99960.47;5291707;26;20069;-96
2023/09/24 13:22:58;;;;;;;0.00;0.00;;;;;;;19.43;60.23;99972.28;5292008;26;20064;-96
2023/09/24 13:25:28;;;;;;;0.00;0.00;;;;;;;19.44;60.23;99974.84;5334196;26;20020;-96
2023/09/24 13:28:05;;;;;;;0.00;0.00;;;;;;;19.57;60.24;99986.31;5304245;26;20056;-96
2023/09/24 13:30:33;;;;;;;0.00;0.00;;;;;;;19.55;60.24;99993.47;5340004;26;20082;-95
2023/09/24 13:32:59;;;;;;;0.52;0.45;;;;;;;19.42;60.23;99995.22;5328440;26;20057;-96
2023/09/24 13:35:30;;;;;;;0.00;0.00;;;;;;;19.55;60.25;99984.72;5329749;26;20870;-94
2023/09/24 13:37:57;;;;;;;0.00;0.00;;;;;;;19.62;60.25;99983.34;5327973;26;20072;-95
2023/09/24 13:40:24;;;;;;;0.00;0.00;;;;;;;19.69;60.24;100000.50;5290059;26;20553;-95
2023/09/24 13:42:51;;;;;;;0.22;0.20;;;;;;;19.74;60.25;99993.13;5309307;26;20388;-96
2023/09/24 13:45:21;;;;;;;0.00;0.00;;;;;;;19.55;60.24;100003.19;5296552;26;20048;-96
2023/09/24 13:47:48;;;;;;;0.00;0.00;;;;;;;19.61;60.23;100011.56;5328829;26;20093;-96
2023/09/24 13:50:14;;;;;;;0.43;0.28;;;;;;;19.65;60.25;100021.94;5328332;26;20114;-95
2023/09/24 13:52:44;;;;;;;0.00;0.00;;;;;;;19.59;60.24;100015.25;5291049;26;20059;-95
2023/09/24 13:55:11;;;;;;;0.00;0.00;;;;;;;19.59;60.24;100009.97;5325567;26;20024;-96
2023/09/24 13:57:37;;;;;;;0.00;0.00;;;;;;;19.68;60.24;100008.53;5292819;26;20115;-94
2023/09/24 14:00:06;;;;;;;0.00;0.00;;;;;;;19.80;60.25;100005.91;5290232;26;20118;-96
2023/09/24 14:02:32;;;;;;;0.00;0.00;;;;;;;19.62;60.25;100007.13;5308609;26;20071;-95
2023/09/24 14:04:58;;;;;;;0.00;0.00;;;;;;;19.68;60.24;100004.09;5290809;26;20162;-95
2023/09/24 14:07:24;;;;;;;0.00;0.00;;;;;;;19.71;60.25;100001.25;5289967;26;20056;-96
2023/09/24 14:12:35;;;;;;;0.22;0.22;;;;;;;19.68;60.24;100009.38;5313672;26;20746;-95
2023/09/24 14:15:04;;;;;;;0.00;0.00;;;;;;;19.82;60.25;100003.19;5290288;26;20057;-96
2023/09/24 14:17:30;;;;;;;0.03;0.03;;;;;;;19.83;60.25;100007.50;5309135;26;20052;-95
2023/09/24 14:19:57;;;;;;;2.08;0.30;;;;;;;19.68;60.24;100006.75;5288494;26;20064;-95
2023/09/24 14:22:23;;;;;;;0.00;0.00;;;;;;;19.76;60.24;100014.16;5289182;26;20095;-95
2023/09/24 14:24:48;;;;;;;0.10;0.10;;;;;;;19.87;60.26;100003.72;5307478;26;20080;-96
2023/09/24 14:27:15;;;;;;;0.00;0.00;;;;;;;19.77;60.25;100013.19;5289856;26;20048;-96
2023/09/24 14:29:40;;;;;;;0.00;0.00;;;;;;;19.90;60.26;100025.50;5289676;26;20135;-96
2023/09/24 14:32:06;;;;;;;0.00;0.00;;;;;;;19.84;60.25;100028.53;5289773;26;20318;-96
2023/09/24 14:34:33;;;;;;;0.00;0.00;;;;;;;19.96;60.26;100031.34;5290218;26;20113;-96
2023/09/24 14:37:09;;;;;;;0.00;0.00;;;;;;;19.98;60.26;100034.72;5329592;26;20447;-96
2023/09/24 14:39:35;;;;;;;0.10;0.10;;;;;;;20.04;60.27;100031.66;5290547;26;20068;-96
2023/09/24 14:42:02;;;;;;;0.00;0.00;;;;;;;19.75;60.25;100026.50;5290244;26;20074;-94
2023/09/24 14:44:35;;;;;;;0.00;0.00;;;;;;;19.91;60.25;100014.00;5293600;26;20049;-96
2023/09/24 14:47:03;;;;;;;0.00;0.00;;;;;;;19.91;60.26;100019.28;5326198;26;20024;-96
2023/09/24 14:49:32;;;;;;;0.52;0.52;;;;;;;19.68;60.25;100033.16;5308240;26;20064;-96
2023/09/24 14:51:58;;;;;;;0.00;0.00;;;;;;;19.84;60.25;100035.62;5326219;26;20072;-95
2023/09/24 14:54:24;;;;;;;0.00;0.00;;;;;;;19.65;60.25;100041.28;5290366;26;20400;-96
2023/09/24 14:56:50;;;;;;;0.00;0.00;;;;;;;19.49;60.24;100035.25;5291870;26;20057;-96
2023/09/24 14:59:16;;;;;;;0.00;0.00;;;;;;;19.63;60.25;100048.41;5290085;26;20039;-96
2023/09/24 15:01:42;;;;;;;0.00;0.00;;;;;;;19.59;60.24;100050.41;5288793;26;20094;-95
2023/09/24 15:04:10;;;;;;;0.00;0.00;;;;;;;19.64;60.25;100039.59;5288769;26;20061;-94
2023/09/24 15:06:36;;;;;;;0.00;0.00;;;;;;;19.60;60.24;100035.41;5288668;26;20052;-95
2023/09/24 15:09:02;;;;;;;0.00;0.00;;;;;;;19.35;60.23;100037.91;5289002;26;20088;-96
2023/09/24 15:11:28;;;;;;;0.22;0.22;;;;;;;19.43;60.23;100040.94;5306919;26;20113;-95
2023/09/24 15:13:54;;;;;;;0.00;0.00;;;;;;;19.37;60.23;100046.56;5289449;26;20052;-95
2023/09/24 15:16:20;;;;;;;0.03;0.03;;;;;;;19.26;60.22;100045.47;5289750;26;20063;-95
2023/09/24 15:18:47;;;;;;;0.17;0.17;;;;;;;19.20;60.22;100050.31;5289143;26;20384;-95
2023/09/24 15:21:14;;;;;;;0.00;0.00;;;;;;;19.32;60.23;100055.62;5289651;26;20088;-95
2023/09/24 15:23:40;;;;;;;1.20;0.40;;;;;;;19.46;60.23;100059.22;5291601;26;20068;-93
2023/09/24 15:26:06;;;;;;;0.22;0.22;;;;;;;19.42;60.23;100052.44;5309569;26;20064;-94
2023/09/24 15:28:32;;;;;;;0.00;0.00;;;;;;;19.41;60.24;100048.09;5316344;26;20052;-90
2023/09/24 15:30:58;;;;;;;0.05;0.05;;;;;;;19.57;60.24;100049.66;5297416;26;20122;-92
2023/09/24 15:33:24;;;;;;;0.35;0.20;;;;;;;19.32;60.23;100054.78;5290172;26;20055;-93
2023/09/24 15:35:50;;;;;;;0.00;0.00;;;;;;;19.28;60.22;100064.69;5287122;26;20043;-92
2023/09/24 15:38:16;;;;;;;1.00;0.70;;;;;;;19.37;60.23;100062.41;5306102;26;20450;-93
2023/09/24 15:40:45;;;;;;;0.47;0.47;;;;;;;19.22;60.22;100062.47;5287078;26;20064;-94
2023/09/24 15:43:10;;;;;;;0.10;0.08;;;;;;;19.15;60.22;100058.47;5287562;26;20128;-94
2023/09/24 15:45:39;;;;;;;0.10;0.10;;;;;;;19.39;60.22;100057.87;5287106;26;20052;-93
2023/09/24 15:48:06;;;;;;;0.00;0.00;;;;;;;19.36;60.22;100058.09;5289166;26;20043;-95
2023/09/24 15:50:32;;;;;;;0.00;0.00;;;;;;;19.35;60.23;100069.59;5288582;26;20080;-91
2023/09/24 15:52:58;;;;;;;0.28;0.28;;;;;;;19.37;60.23;100068.53;5290323;26;20068;-93
2023/09/24 15:55:24;;;;;;;0.00;0.00;;;;;;;19.49;60.24;100067.78;5290419;26;20116;-95
2023/09/24 15:57:50;;;;;;;0.00;0.00;;;;;;;19.64;60.25;100073.91;5291112;26;20094;-93
2023/09/24 16:00:18;;;;;;;0.10;0.10;;;;;;;19.49;60.24;100078.34;5289046;26;20064;-93
2023/09/24 16:02:44;;;;;;;0.00;0.00;;;;;;;19.51;60.24;100087.00;5291781;26;20809;-94
2023/09/24 16:05:10;;;;;;;0.00;0.00;;;;;;;19.26;60.22;100084.22;5287952;26;20094;-92
2023/09/24 16:07:37;;;;;;;0.00;0.00;;;;;;;19.40;60.24;100088.63;5295114;26;20099;-95
2023/09/24 16:10:05;;;;;;;0.10;0.10;;;;;;;19.57;60.24;100091.06;5320794;26;20047;-93
2023/09/24 16:12:31;;;;;;;0.00;0.00;;;;;;;19.52;60.24;100101.06;5300800;26;20056;-93
2023/09/24 16:14:57;;;;;;;0.00;0.00;;;;;;;19.58;60.24;100098.06;5289926;26;20112;-94
2023/09/24 16:17:23;;;;;;;0.00;0.00;;;;;;;19.24;60.23;100102.78;5288899;26;20067;-95
2023/09/24 16:19:49;;;;;;;0.13;0.13;;;;;;;19.32;60.23;100103.16;5288830;26;20079;-93
2023/09/24 16:22:15;;;;;;;0.90;0.73;;;;;;;19.42;60.23;100099.94;5288757;26;20422;-95
2023/09/24 16:24:41;;;;;;;0.00;0.00;;;;;;;19.43;60.23;100101.66;5288752;26;20376;-93
2023/09/24 16:27:08;;;;;;;0.00;0.00;;;;;;;19.38;60.24;100115.13;5287883;26;20111;-93
2023/09/24 16:29:37;;;;;;;0.20;0.10;;;;;;;19.44;60.23;100116.53;5288151;26;20064;-92
2023/09/24 16:32:03;;;;;;;0.00;0.00;;;;;;;19.28;60.23;100130.69;5288219;26;20048;-94
2023/09/24 16:34:36;;;;;;;0.00;0.00;;;;;;;19.00;60.21;100130.69;5289970;26;20091;-93
2023/09/24 16:37:02;;;;;;;0.00;0.00;;;;;;;19.13;60.22;100123.69;5291987;26;20391;-92
2023/09/24 16:39:28;;;;;;;0.00;0.00;;;;;;;19.21;60.22;100125.91;5288776;26;20166;-94
2023/09/24 16:41:54;;;;;;;0.20;0.17;;;;;;;19.19;60.22;100139.19;5287119;26;20065;-93